sensor_id;sensor_type;location;lat;lon;timestamp;pressure;altitude;pressure_sealevel;temperature;humidity
7584;BME280;3833;41.764;26.204;2023-03-16T00:01:31;97817.34;;;10.17;100.00
7584;BME280;3833;41.764;26.204;2023-03-16T00:03:58;97820.06;;;10.16;100.00
7584;BME280;3833;41.764;26.204;2023-03-16T00:06:24;97829.31;;;10.09;100.00
7584;BME280;3833;41.764;26.204;2023-03-16T00:08:51;97823.63;;;10.15;100.00
7584;BME280;3833;41.764;26.204;2023-03-16T00:11:23;97839.97;;;10.28;100.00
7584;BME280;3833;41.764;26.204;2023-03-16T00:13:50;97824.31;;;10.28;100.00
7584;BME280;3833;41.764;26.204;2023-03-16T00:16:18;97832.38;;;10.14;100.00
7584;BME280;3833;41.764;26.204;2023-03-16T00:18:45;97840.53;;;10.20;100.00
7584;BME280;3833;41.764;26.204;2023-03-16T00:21:12;97832.63;;;10.11;100.00
7584;BME280;3833;41.764;26.204;2023-03-16T00:23:40;97731.13;;;9.43;100.00
7584;BME280;3833;41.764;26.204;2023-03-16T00:26:07;97782.88;;;9.59;100.00
7584;BME280;3833;41.764;26.204;2023-03-16T00:28:35;97827.03;;;9.82;100.00
7584;BME280;3833;41.764;26.204;2023-03-16T00:31:02;97814.38;;;9.67;100.00
7584;BME280;3833;41.764;26.204;2023-03-16T00:33:31;97795.19;;;9.57;100.00
7584;BME280;3833;41.764;26.204;2023-03-16T00:35:59;97826.91;;;9.51;100.00
7584;BME280;3833;41.764;26.204;2023-03-16T00:38:32;97791.13;;;9.20;100.00
7584;BME280;3833;41.764;26.204;2023-03-16T00:41:00;97783.00;;;8.90;100.00
7584;BME280;3833;41.764;26.204;2023-03-16T00:43:28;97717.19;;;8.66;100.00
7584;BME280;3833;41.764;26.204;2023-03-16T00:45:58;97824.25;;;9.18;100.00
7584;BME280;3833;41.764;26.204;2023-03-16T00:48:32;97787.22;;;9.15;100.00
7584;BME280;3833;41.764;26.204;2023-03-16T00:51:00;97796.22;;;9.11;100.00
7584;BME280;3833;41.764;26.204;2023-03-16T00:53:28;97841.38;;;9.44;100.00
7584;BME280;3833;41.764;26.204;2023-03-16T00:55:56;97716.28;;;8.78;100.00
7584;BME280;3833;41.764;26.204;2023-03-16T00:58:22;97823.34;;;9.41;100.00
7584;BME280;3833;41.764;26.204;2023-03-16T01:00:49;97823.94;;;9.44;100.00
7584;BME280;3833;41.764;26.204;2023-03-16T01:03:18;97821.69;;;9.51;100.00
7584;BME280;3833;41.764;26.204;2023-03-16T01:05:46;97823.72;;;9.47;100.00
7584;BME280;3833;41.764;26.204;2023-03-16T01:08:13;97825.75;;;9.44;100.00
7584;BME280;3833;41.764;26.204;2023-03-16T01:10:40;97823.00;;;9.45;100.00
7584;BME280;3833;41.764;26.204;2023-03-16T01:13:09;97826.09;;;9.50;100.00
7584;BME280;3833;41.764;26.204;2023-03-16T01:15:37;97829.50;;;9.51;100.00
7584;BME280;3833;41.764;26.204;2023-03-16T01:18:04;97823.84;;;9.46;100.00
7584;BME280;3833;41.764;26.204;2023-03-16T01:20:31;97823.22;;;9.42;100.00
7584;BME280;3833;41.764;26.204;2023-03-16T01:23:00;97825.69;;;9.22;100.00
7584;BME280;3833;41.764;26.204;2023-03-16T01:25:27;97831.53;;;9.36;100.00
7584;BME280;3833;41.764;26.204;2023-03-16T01:27:54;97833.75;;;9.30;100.00
7584;BME280;3833;41.764;26.204;2023-03-16T01:30:21;97834.00;;;9.38;100.00
7584;BME280;3833;41.764;26.204;2023-03-16T01:32:48;97831.84;;;9.32;100.00
7584;BME280;3833;41.764;26.204;2023-03-16T01:35:15;97830.91;;;9.22;100.00
7584;BME280;3833;41.764;26.204;2023-03-16T01:37:42;97833.72;;;9.19;100.00
7584;BME280;3833;41.764;26.204;2023-03-16T01:40:11;97830.97;;;9.10;100.00
7584;BME280;3833;41.764;26.204;2023-03-16T01:42:45;97829.25;;;9.21;100.00
7584;BME280;3833;41.764;26.204;2023-03-16T01:48:17;97815.19;;;9.34;100.00
7584;BME280;3833;41.764;26.204;2023-03-16T01:50:44;97791.81;;;9.11;100.00
7584;BME280;3833;41.764;26.204;2023-03-16T01:53:11;97829.03;;;9.24;100.00
7584;BME280;3833;41.764;26.204;2023-03-16T01:55:40;97626.03;;;8.12;100.00
7584;BME280;3833;41.764;26.204;2023-03-16T01:58:08;97834.94;;;9.37;100.00
7584;BME280;3833;41.764;26.204;2023-03-16T02:00:35;97817.66;;;9.36;100.00
7584;BME280;3833;41.764;26.204;2023-03-16T02:03:06;97817.53;;;9.27;100.00
7584;BME280;3833;41.764;26.204;2023-03-16T02:05:38;97825.69;;;9.22;100.00
7584;BME280;3833;41.764;26.204;2023-03-16T02:08:08;97824.97;;;9.20;100.00
7584;BME280;3833;41.764;26.204;2023-03-16T02:10:36;97826.16;;;9.16;100.00
7584;BME280;3833;41.764;26.204;2023-03-16T02:13:05;97836.78;;;9.13;100.00
7584;BME280;3833;41.764;26.204;2023-03-16T02:15:33;97831.47;;;9.15;100.00
7584;BME280;3833;41.764;26.204;2023-03-16T02:18:00;97832.88;;;9.19;100.00
7584;BME280;3833;41.764;26.204;2023-03-16T02:20:34;97838.44;;;9.14;100.00
7584;BME280;3833;41.764;26.204;2023-03-16T02:23:04;97835.97;;;9.13;100.00
7584;BME280;3833;41.764;26.204;2023-03-16T02:25:38;97840.09;;;9.15;100.00
7584;BME280;3833;41.764;26.204;2023-03-16T02:28:14;97851.38;;;9.27;100.00
7584;BME280;3833;41.764;26.204;2023-03-16T02:30:46;97856.44;;;9.17;100.00
7584;BME280;3833;41.764;26.204;2023-03-16T02:33:13;97856.16;;;9.09;100.00
7584;BME280;3833;41.764;26.204;2023-03-16T02:35:41;97856.66;;;9.14;100.00
7584;BME280;3833;41.764;26.204;2023-03-16T02:38:08;97748.88;;;8.60;100.00
7584;BME280;3833;41.764;26.204;2023-03-16T02:40:35;97856.44;;;9.17;100.00
7584;BME280;3833;41.764;26.204;2023-03-16T02:43:06;97862.81;;;9.13;100.00
7584;BME280;3833;41.764;26.204;2023-03-16T02:45:37;97855.94;;;9.12;100.00
7584;BME280;3833;41.764;26.204;2023-03-16T02:48:10;97864.03;;;9.20;100.00
7584;BME280;3833;41.764;26.204;2023-03-16T02:50:43;97869.91;;;9.11;100.00
7584;BME280;3833;41.764;26.204;2023-03-16T02:53:12;97866.59;;;9.09;100.00
7584;BME280;3833;41.764;26.204;2023-03-16T02:55:39;97874.59;;;8.95;100.00
7584;BME280;3833;41.764;26.204;2023-03-16T02:58:06;97870.25;;;9.07;100.00
7584;BME280;3833;41.764;26.204;2023-03-16T03:00:33;97879.59;;;9.09;100.00
7584;BME280;3833;41.764;26.204;2023-03-16T03:03:00;97853.88;;;8.70;100.00
7584;BME280;3833;41.764;26.204;2023-03-16T03:05:29;97844.06;;;8.39;100.00
7584;BME280;3833;41.764;26.204;2023-03-16T03:07:56;97877.34;;;8.58;100.00
7584;BME280;3833;41.764;26.204;2023-03-16T03:10:23;97860.16;;;8.44;100.00
7584;BME280;3833;41.764;26.204;2023-03-16T03:12:50;97883.13;;;8.74;100.00
7584;BME280;3833;41.764;26.204;2023-03-16T03:15:17;97873.81;;;8.82;100.00
7584;BME280;3833;41.764;26.204;2023-03-16T03:17:46;97890.69;;;9.00;100.00
7584;BME280;3833;41.764;26.204;2023-03-16T03:20:13;97884.72;;;8.87;100.00
7584;BME280;3833;41.764;26.204;2023-03-16T03:22:43;97892.75;;;8.84;100.00
7584;BME280;3833;41.764;26.204;2023-03-16T03:25:11;97895.38;;;8.84;100.00
7584;BME280;3833;41.764;26.204;2023-03-16T03:27:38;97906.03;;;8.45;100.00
7584;BME280;3833;41.764;26.204;2023-03-16T03:30:07;97879.69;;;8.50;100.00
7584;BME280;3833;41.764;26.204;2023-03-16T03:32:34;97910.03;;;8.85;100.00
7584;BME280;3833;41.764;26.204;2023-03-16T03:35:01;97904.75;;;8.74;100.00
7584;BME280;3833;41.764;26.204;2023-03-16T03:37:28;97901.97;;;8.41;100.00
7584;BME280;3833;41.764;26.204;2023-03-16T03:39:56;97918.00;;;8.11;100.00
7584;BME280;3833;41.764;26.204;2023-03-16T03:42:23;97929.63;;;8.42;100.00
7584;BME280;3833;41.764;26.204;2023-03-16T03:44:51;97918.75;;;8.13;100.00
7584;BME280;3833;41.764;26.204;2023-03-16T03:47:18;97914.19;;;8.04;100.00
7584;BME280;3833;41.764;26.204;2023-03-16T03:49:45;97919.59;;;8.13;100.00
7584;BME280;3833;41.764;26.204;2023-03-16T03:52:12;97927.47;;;8.36;100.00
7584;BME280;3833;41.764;26.204;2023-03-16T03:54:39;97868.56;;;8.00;100.00
7584;BME280;3833;41.764;26.204;2023-03-16T03:57:07;97933.03;;;8.55;100.00
7584;BME280;3833;41.764;26.204;2023-03-16T03:59:34;97922.75;;;8.77;100.00
7584;BME280;3833;41.764;26.204;2023-03-16T04:02:07;97932.25;;;8.66;100.00
7584;BME280;3833;41.764;26.204;2023-03-16T04:04:34;97940.34;;;8.25;100.00
7584;BME280;3833;41.764;26.204;2023-03-16T04:07:00;97943.47;;;8.43;100.00
7584;BME280;3833;41.764;26.204;2023-03-16T04:09:28;97926.22;;;8.29;100.00
7584;BME280;3833;41.764;26.204;2023-03-16T04:11:58;97943.25;;;8.46;100.00
7584;BME280;3833;41.764;26.204;2023-03-16T04:14:27;97953.22;;;8.52;100.00
7584;BME280;3833;41.764;26.204;2023-03-16T04:16:54;97961.47;;;8.69;100.00
7584;BME280;3833;41.764;26.204;2023-03-16T04:19:21;97971.88;;;8.69;100.00
7584;BME280;3833;41.764;26.204;2023-03-16T04:21:48;97975.00;;;8.74;100.00
7584;BME280;3833;41.764;26.204;2023-03-16T04:24:15;97938.88;;;8.46;100.00
7584;BME280;3833;41.764;26.204;2023-03-16T04:26:42;97971.47;;;8.75;100.00
7584;BME280;3833;41.764;26.204;2023-03-16T04:29:10;97972.75;;;8.57;100.00
7584;BME280;3833;41.764;26.204;2023-03-16T04:31:38;97971.97;;;8.32;100.00
7584;BME280;3833;41.764;26.204;2023-03-16T04:34:07;97955.72;;;8.41;100.00
7584;BME280;3833;41.764;26.204;2023-03-16T04:36:33;97943.25;;;8.46;100.00
7584;BME280;3833;41.764;26.204;2023-03-16T04:39:00;97988.22;;;8.71;100.00
7584;BME280;3833;41.764;26.204;2023-03-16T04:41:28;97984.63;;;8.61;100.00
7584;BME280;3833;41.764;26.204;2023-03-16T04:43:56;97984.81;;;8.71;100.00
7584;BME280;3833;41.764;26.204;2023-03-16T04:46:23;97994.34;;;8.70;100.00
7584;BME280;3833;41.764;26.204;2023-03-16T04:48:52;97897.94;;;8.13;100.00
7584;BME280;3833;41.764;26.204;2023-03-16T04:51:23;98005.59;;;8.83;100.00
7584;BME280;3833;41.764;26.204;2023-03-16T04:53:50;98009.47;;;8.65;100.00
7584;BME280;3833;41.764;26.204;2023-03-16T04:56:17;98019.22;;;8.74;100.00
7584;BME280;3833;41.764;26.204;2023-03-16T04:58:44;98014.53;;;8.79;100.00
7584;BME280;3833;41.764;26.204;2023-03-16T05:01:11;97979.03;;;8.55;100.00
7584;BME280;3833;41.764;26.204;2023-03-16T05:03:38;98023.91;;;8.69;100.00
7584;BME280;3833;41.764;26.204;2023-03-16T05:06:06;98032.22;;;8.74;100.00
7584;BME280;3833;41.764;26.204;2023-03-16T05:08:34;98035.69;;;8.75;100.00
7584;BME280;3833;41.764;26.204;2023-03-16T05:11:03;98033.91;;;8.75;100.00
7584;BME280;3833;41.764;26.204;2023-03-16T05:13:29;98034.75;;;8.63;100.00
7584;BME280;3833;41.764;26.204;2023-03-16T05:15:56;98016.31;;;8.66;100.00
7584;BME280;3833;41.764;26.204;2023-03-16T05:18:23;97941.19;;;8.14;100.00
7584;BME280;3833;41.764;26.204;2023-03-16T05:20:52;98037.84;;;8.68;100.00
7584;BME280;3833;41.764;26.204;2023-03-16T05:23:22;98049.72;;;8.72;100.00
7584;BME280;3833;41.764;26.204;2023-03-16T05:25:50;98032.91;;;8.53;100.00
7584;BME280;3833;41.764;26.204;2023-03-16T05:28:17;98059.53;;;8.56;100.00
7584;BME280;3833;41.764;26.204;2023-03-16T05:30:44;98067.63;;;8.64;100.00
7584;BME280;3833;41.764;26.204;2023-03-16T05:33:11;98075.13;;;8.56;100.00
7584;BME280;3833;41.764;26.204;2023-03-16T05:35:38;98070.75;;;8.57;100.00
7584;BME280;3833;41.764;26.204;2023-03-16T05:38:05;98074.00;;;8.48;100.00
7584;BME280;3833;41.764;26.204;2023-03-16T05:40:34;98082.00;;;8.57;100.00
7584;BME280;3833;41.764;26.204;2023-03-16T05:43:02;98084.28;;;8.49;100.00
7584;BME280;3833;41.764;26.204;2023-03-16T05:45:29;98083.44;;;8.36;100.00
7584;BME280;3833;41.764;26.204;2023-03-16T05:47:56;98092.28;;;8.46;100.00
7584;BME280;3833;41.764;26.204;2023-03-16T05:50:23;98092.91;;;8.37;100.00
7584;BME280;3833;41.764;26.204;2023-03-16T05:52:51;98047.13;;;7.98;100.00
7584;BME280;3833;41.764;26.204;2023-03-16T05:55:19;98072.78;;;8.15;100.00
7584;BME280;3833;41.764;26.204;2023-03-16T05:57:47;98099.66;;;8.27;100.00
7584;BME280;3833;41.764;26.204;2023-03-16T06:00:15;98100.13;;;8.08;100.00
7584;BME280;3833;41.764;26.204;2023-03-16T06:02:46;98108.63;;;8.24;100.00
7584;BME280;3833;41.764;26.204;2023-03-16T06:05:13;98111.91;;;8.13;100.00
7584;BME280;3833;41.764;26.204;2023-03-16T06:07:41;98109.84;;;8.18;100.00
7584;BME280;3833;41.764;26.204;2023-03-16T06:10:10;98115.50;;;8.11;100.00
7584;BME280;3833;41.764;26.204;2023-03-16T06:12:37;98123.06;;;8.27;100.00
7584;BME280;3833;41.764;26.204;2023-03-16T06:15:07;98123.31;;;8.11;100.00
7584;BME280;3833;41.764;26.204;2023-03-16T06:17:35;98123.59;;;8.32;100.00
7584;BME280;3833;41.764;26.204;2023-03-16T06:20:04;98126.28;;;8.19;100.00
7584;BME280;3833;41.764;26.204;2023-03-16T06:22:35;98126.44;;;8.16;100.00
7584;BME280;3833;41.764;26.204;2023-03-16T06:25:03;98131.69;;;8.28;100.00
7584;BME280;3833;41.764;26.204;2023-03-16T06:27:30;98132.31;;;8.31;100.00
7584;BME280;3833;41.764;26.204;2023-03-16T06:29:58;98140.31;;;8.28;100.00
7584;BME280;3833;41.764;26.204;2023-03-16T06:32:27;98141.69;;;8.34;100.00
7584;BME280;3833;41.764;26.204;2023-03-16T06:34:54;98149.91;;;8.28;100.00
7584;BME280;3833;41.764;26.204;2023-03-16T06:37:24;98153.50;;;8.25;100.00
7584;BME280;3833;41.764;26.204;2023-03-16T06:39:51;98039.03;;;7.63;100.00
7584;BME280;3833;41.764;26.204;2023-03-16T06:42:18;98156.56;;;8.32;100.00
7584;BME280;3833;41.764;26.204;2023-03-16T06:44:45;98151.66;;;8.27;100.00
7584;BME280;3833;41.764;26.204;2023-03-16T06:47:13;98156.03;;;8.27;100.00
7584;BME280;3833;41.764;26.204;2023-03-16T06:49:42;98159.97;;;8.32;100.00
7584;BME280;3833;41.764;26.204;2023-03-16T06:52:11;98149.94;;;8.14;100.00
7584;BME280;3833;41.764;26.204;2023-03-16T06:54:39;98137.19;;;7.97;100.00
7584;BME280;3833;41.764;26.204;2023-03-16T06:57:07;98151.22;;;7.95;100.00
7584;BME280;3833;41.764;26.204;2023-03-16T06:59:34;98142.16;;;7.88;100.00
7584;BME280;3833;41.764;26.204;2023-03-16T07:02:01;98186.78;;;8.21;100.00
7584;BME280;3833;41.764;26.204;2023-03-16T07:04:28;98186.81;;;8.07;100.00
7584;BME280;3833;41.764;26.204;2023-03-16T07:06:56;98174.63;;;7.95;100.00
7584;BME280;3833;41.764;26.204;2023-03-16T07:09:23;98190.13;;;8.23;100.00
7584;BME280;3833;41.764;26.204;2023-03-16T07:11:50;98142.78;;;7.79;100.00
7584;BME280;3833;41.764;26.204;2023-03-16T07:14:17;98194.88;;;8.16;100.00
7584;BME280;3833;41.764;26.204;2023-03-16T07:16:47;98191.34;;;8.17;100.00
7584;BME280;3833;41.764;26.204;2023-03-16T07:19:14;98201.94;;;8.14;100.00
7584;BME280;3833;41.764;26.204;2023-03-16T07:21:41;98201.47;;;8.08;100.00
7584;BME280;3833;41.764;26.204;2023-03-16T07:24:11;98187.97;;;8.03;100.00
7584;BME280;3833;41.764;26.204;2023-03-16T07:26:38;98210.75;;;8.12;100.00
7584;BME280;3833;41.764;26.204;2023-03-16T07:29:05;98189.63;;;8.04;100.00
7584;BME280;3833;41.764;26.204;2023-03-16T07:31:34;98208.75;;;8.03;100.00
7584;BME280;3833;41.764;26.204;2023-03-16T07:34:02;98217.84;;;7.96;100.00
7584;BME280;3833;41.764;26.204;2023-03-16T07:36:29;98219.84;;;8.19;100.00
7584;BME280;3833;41.764;26.204;2023-03-16T07:38:56;98221.59;;;8.18;100.00
7584;BME280;3833;41.764;26.204;2023-03-16T07:41:24;98218.72;;;8.09;100.00
7584;BME280;3833;41.764;26.204;2023-03-16T07:43:51;98198.06;;;7.81;100.00
7584;BME280;3833;41.764;26.204;2023-03-16T07:46:19;98233.56;;;7.94;100.00
7584;BME280;3833;41.764;26.204;2023-03-16T07:48:46;98210.50;;;7.76;100.00
7584;BME280;3833;41.764;26.204;2023-03-16T07:51:13;98238.47;;;7.99;100.00
7584;BME280;3833;41.764;26.204;2023-03-16T07:53:40;98234.88;;;7.87;100.00
7584;BME280;3833;41.764;26.204;2023-03-16T07:56:07;98249.59;;;7.87;100.00
7584;BME280;3833;41.764;26.204;2023-03-16T07:58:37;98242.38;;;7.92;100.00
7584;BME280;3833;41.764;26.204;2023-03-16T08:01:04;98254.81;;;7.87;100.00
7584;BME280;3833;41.764;26.204;2023-03-16T08:03:31;98246.81;;;7.90;100.00
7584;BME280;3833;41.764;26.204;2023-03-16T08:05:58;98258.88;;;7.91;100.00
7584;BME280;3833;41.764;26.204;2023-03-16T08:08:25;98264.94;;;7.91;100.00
7584;BME280;3833;41.764;26.204;2023-03-16T08:10:52;98252.19;;;8.01;100.00
7584;BME280;3833;41.764;26.204;2023-03-16T08:13:19;98266.19;;;7.98;100.00
7584;BME280;3833;41.764;26.204;2023-03-16T08:15:49;98265.75;;;7.92;100.00
7584;BME280;3833;41.764;26.204;2023-03-16T08:18:23;98268.53;;;7.89;100.00
7584;BME280;3833;41.764;26.204;2023-03-16T08:20:50;98270.91;;;8.06;100.00
7584;BME280;3833;41.764;26.204;2023-03-16T08:23:17;98265.31;;;8.12;100.00
7584;BME280;3833;41.764;26.204;2023-03-16T08:25:44;98263.84;;;8.08;100.00
7584;BME280;3833;41.764;26.204;2023-03-16T08:28:11;98277.75;;;8.07;100.00
7584;BME280;3833;41.764;26.204;2023-03-16T08:30:43;98257.50;;;7.85;100.00
7584;BME280;3833;41.764;26.204;2023-03-16T08:33:12;98284.47;;;7.97;100.00
7584;BME280;3833;41.764;26.204;2023-03-16T08:35:41;98175.72;;;7.38;100.00
7584;BME280;3833;41.764;26.204;2023-03-16T08:38:10;98189.97;;;7.45;100.00
7584;BME280;3833;41.764;26.204;2023-03-16T08:40:38;98268.47;;;7.76;100.00
7584;BME280;3833;41.764;26.204;2023-03-16T08:43:06;98304.91;;;8.03;100.00
7584;BME280;3833;41.764;26.204;2023-03-16T08:45:33;98302.50;;;8.00;100.00
7584;BME280;3833;41.764;26.204;2023-03-16T08:48:01;98282.38;;;7.75;100.00
7584;BME280;3833;41.764;26.204;2023-03-16T08:50:30;98309.00;;;7.79;100.00
7584;BME280;3833;41.764;26.204;2023-03-16T08:52:58;98307.16;;;7.81;100.00
7584;BME280;3833;41.764;26.204;2023-03-16T08:55:25;98255.97;;;7.55;100.00
7584;BME280;3833;41.764;26.204;2023-03-16T08:57:53;98309.16;;;7.90;100.00
7584;BME280;3833;41.764;26.204;2023-03-16T09:00:21;98309.84;;;7.79;100.00
7584;BME280;3833;41.764;26.204;2023-03-16T09:02:48;98286.50;;;7.37;100.00
7584;BME280;3833;41.764;26.204;2023-03-16T09:05:15;98327.00;;;7.68;100.00
7584;BME280;3833;41.764;26.204;2023-03-16T09:07:44;98329.97;;;7.48;100.00
7584;BME280;3833;41.764;26.204;2023-03-16T09:10:12;98331.28;;;7.69;100.00
7584;BME280;3833;41.764;26.204;2023-03-16T09:12:41;98295.88;;;7.40;100.00
7584;BME280;3833;41.764;26.204;2023-03-16T09:15:10;98328.94;;;7.78;100.00
7584;BME280;3833;41.764;26.204;2023-03-16T09:17:38;98333.47;;;7.89;100.00
7584;BME280;3833;41.764;26.204;2023-03-16T09:20:08;98337.94;;;7.87;100.00
7584;BME280;3833;41.764;26.204;2023-03-16T09:22:37;98344.97;;;7.85;100.00
7584;BME280;3833;41.764;26.204;2023-03-16T09:25:06;98335.97;;;8.04;100.00
7584;BME280;3833;41.764;26.204;2023-03-16T09:27:34;98340.72;;;7.98;100.00
7584;BME280;3833;41.764;26.204;2023-03-16T09:30:02;98339.22;;;7.94;100.00
7584;BME280;3833;41.764;26.204;2023-03-16T09:32:30;98353.53;;;7.87;100.00
7584;BME280;3833;41.764;26.204;2023-03-16T09:34:57;98349.44;;;7.97;100.00
7584;BME280;3833;41.764;26.204;2023-03-16T09:37:24;98348.72;;;7.81;100.00
7584;BME280;3833;41.764;26.204;2023-03-16T09:39:52;98350.41;;;7.82;100.00
7584;BME280;3833;41.764;26.204;2023-03-16T09:42:27;98354.28;;;7.75;100.00
7584;BME280;3833;41.764;26.204;2023-03-16T09:45:05;98319.34;;;7.52;100.00
7584;BME280;3833;41.764;26.204;2023-03-16T09:47:35;98361.59;;;7.82;100.00
7584;BME280;3833;41.764;26.204;2023-03-16T09:50:07;98253.56;;;7.24;100.00
7584;BME280;3833;41.764;26.204;2023-03-16T09:52:40;98360.41;;;7.74;100.00
7584;BME280;3833;41.764;26.204;2023-03-16T09:55:18;98338.97;;;7.56;100.00
7584;BME280;3833;41.764;26.204;2023-03-16T09:57:50;98335.84;;;7.51;100.00
7584;BME280;3833;41.764;26.204;2023-03-16T10:00:20;98281.19;;;7.25;100.00
7584;BME280;3833;41.764;26.204;2023-03-16T10:03:14;98268.97;;;7.27;100.00
7584;BME280;3833;41.764;26.204;2023-03-16T10:05:47;98367.16;;;7.76;100.00
7584;BME280;3833;41.764;26.204;2023-03-16T10:08:20;98368.19;;;7.88;100.00
7584;BME280;3833;41.764;26.204;2023-03-16T10:11:04;98370.59;;;7.91;100.00
7584;BME280;3833;41.764;26.204;2023-03-16T10:13:46;98367.25;;;7.89;100.00
7584;BME280;3833;41.764;26.204;2023-03-16T10:16:17;98249.88;;;7.28;100.00
7584;BME280;3833;41.764;26.204;2023-03-16T10:18:48;98373.66;;;8.11;100.00
7584;BME280;3833;41.764;26.204;2023-03-16T10:21:17;98369.28;;;8.25;100.00
7584;BME280;3833;41.764;26.204;2023-03-16T10:23:46;98366.69;;;8.12;100.00
7584;BME280;3833;41.764;26.204;2023-03-16T10:26:17;98286.59;;;7.64;100.00
7584;BME280;3833;41.764;26.204;2023-03-16T10:28:47;98335.34;;;8.01;100.00
7584;BME280;3833;41.764;26.204;2023-03-16T10:31:15;98359.47;;;8.03;100.00
7584;BME280;3833;41.764;26.204;2023-03-16T10:33:49;98367.53;;;7.98;100.00
7584;BME280;3833;41.764;26.204;2023-03-16T10:36:24;98366.41;;;8.16;100.00
7584;BME280;3833;41.764;26.204;2023-03-16T10:38:57;98366.03;;;8.08;100.00
7584;BME280;3833;41.764;26.204;2023-03-16T10:41:27;98365.50;;;8.17;100.00
7584;BME280;3833;41.764;26.204;2023-03-16T10:43:57;98329.78;;;7.79;100.00
7584;BME280;3833;41.764;26.204;2023-03-16T10:46:35;98371.88;;;8.12;100.00
7584;BME280;3833;41.764;26.204;2023-03-16T10:49:03;98367.91;;;8.06;100.00
7584;BME280;3833;41.764;26.204;2023-03-16T10:51:32;98369.69;;;8.20;100.00
7584;BME280;3833;41.764;26.204;2023-03-16T10:54:08;98360.22;;;8.19;100.00
7584;BME280;3833;41.764;26.204;2023-03-16T10:56:36;98357.50;;;8.20;100.00
7584;BME280;3833;41.764;26.204;2023-03-16T10:59:26;98367.25;;;8.17;100.00
7584;BME280;3833;41.764;26.204;2023-03-16T11:01:54;98362.22;;;8.14;100.00
7584;BME280;3833;41.764;26.204;2023-03-16T11:04:21;98358.69;;;8.15;100.00
7584;BME280;3833;41.764;26.204;2023-03-16T11:06:52;98148.91;;;6.97;100.00
7584;BME280;3833;41.764;26.204;2023-03-16T11:09:22;98263.66;;;7.70;100.00
7584;BME280;3833;41.764;26.204;2023-03-16T11:11:51;98365.38;;;8.32;100.00
7584;BME280;3833;41.764;26.204;2023-03-16T11:14:22;98367.16;;;8.18;100.00
7584;BME280;3833;41.764;26.204;2023-03-16T11:16:58;98333.06;;;8.09;100.00
7584;BME280;3833;41.764;26.204;2023-03-16T11:19:28;98371.13;;;8.37;100.00
7584;BME280;3833;41.764;26.204;2023-03-16T11:21:59;98370.50;;;8.34;100.00
7584;BME280;3833;41.764;26.204;2023-03-16T11:24:33;98369.44;;;8.36;100.00
7584;BME280;3833;41.764;26.204;2023-03-16T11:27:10;98367.34;;;8.29;100.00
7584;BME280;3833;41.764;26.204;2023-03-16T11:29:58;98370.53;;;8.46;100.00
7584;BME280;3833;41.764;26.204;2023-03-16T11:32:28;98371.81;;;8.53;100.00
7584;BME280;3833;41.764;26.204;2023-03-16T11:34:56;98368.97;;;8.44;100.00
7584;BME280;3833;41.764;26.204;2023-03-16T11:37:31;98258.06;;;7.90;100.00
7584;BME280;3833;41.764;26.204;2023-03-16T11:40:08;98365.97;;;8.76;100.00
7584;BME280;3833;41.764;26.204;2023-03-16T11:42:48;98371.75;;;8.67;100.00
7584;BME280;3833;41.764;26.204;2023-03-16T11:45:27;98363.09;;;8.54;100.00
7584;BME280;3833;41.764;26.204;2023-03-16T11:48:11;98367.28;;;8.69;100.00
7584;BME280;3833;41.764;26.204;2023-03-16T11:50:56;98340.75;;;8.38;100.00
7584;BME280;3833;41.764;26.204;2023-03-16T11:53:48;98371.88;;;8.39;100.00
7584;BME280;3833;41.764;26.204;2023-03-16T11:56:29;98268.72;;;7.86;100.00
7584;BME280;3833;41.764;26.204;2023-03-16T12:02:23;98387.03;;;8.59;100.00
7584;BME280;3833;41.764;26.204;2023-03-16T12:07:55;98386.13;;;8.46;100.00
7584;BME280;3833;41.764;26.204;2023-03-16T12:10:31;98350.53;;;8.07;100.00
7584;BME280;3833;41.764;26.204;2023-03-16T12:13:09;98367.59;;;8.38;100.00
7584;BME280;3833;41.764;26.204;2023-03-16T12:15:42;98372.72;;;8.26;100.00
7584;BME280;3833;41.764;26.204;2023-03-16T12:18:17;98393.34;;;8.29;100.00
7584;BME280;3833;41.764;26.204;2023-03-16T12:20:51;98397.69;;;8.28;100.00
7584;BME280;3833;41.764;26.204;2023-03-16T12:23:24;98401.53;;;8.49;100.00
7584;BME280;3833;41.764;26.204;2023-03-16T12:25:53;98346.47;;;8.17;100.00
7584;BME280;3833;41.764;26.204;2023-03-16T12:28:22;98402.69;;;8.45;100.00
7584;BME280;3833;41.764;26.204;2023-03-16T12:31:01;98407.72;;;8.34;100.00
7584;BME280;3833;41.764;26.204;2023-03-16T12:36:49;98409.34;;;8.49;100.00
7584;BME280;3833;41.764;26.204;2023-03-16T12:39:29;98407.22;;;8.42;100.00
7584;BME280;3833;41.764;26.204;2023-03-16T12:42:07;98393.16;;;8.32;100.00
7584;BME280;3833;41.764;26.204;2023-03-16T12:44:38;98407.72;;;8.34;100.00
7584;BME280;3833;41.764;26.204;2023-03-16T12:47:18;98382.88;;;8.17;100.00
7584;BME280;3833;41.764;26.204;2023-03-16T12:49:48;98380.81;;;8.22;100.00
7584;BME280;3833;41.764;26.204;2023-03-16T12:52:17;98362.81;;;8.05;100.00
7584;BME280;3833;41.764;26.204;2023-03-16T12:54:49;98431.66;;;8.25;100.00
7584;BME280;3833;41.764;26.204;2023-03-16T12:57:17;98353.00;;;7.82;100.00
7584;BME280;3833;41.764;26.204;2023-03-16T12:59:46;98419.97;;;8.05;100.00
7584;BME280;3833;41.764;26.204;2023-03-16T13:02:18;98400.78;;;7.93;100.00
7584;BME280;3833;41.764;26.204;2023-03-16T13:04:47;98429.28;;;8.23;100.00
7584;BME280;3833;41.764;26.204;2023-03-16T13:07:23;98410.41;;;8.05;100.00
7584;BME280;3833;41.764;26.204;2023-03-16T13:09:51;98388.03;;;7.89;100.00
7584;BME280;3833;41.764;26.204;2023-03-16T13:12:25;98435.56;;;8.05;100.00
7584;BME280;3833;41.764;26.204;2023-03-16T13:14:54;98359.75;;;7.56;100.00
7584;BME280;3833;41.764;26.204;2023-03-16T13:17:27;98328.13;;;7.50;100.00
7584;BME280;3833;41.764;26.204;2023-03-16T13:20:22;98422.56;;;7.91;100.00
7584;BME280;3833;41.764;26.204;2023-03-16T13:23:07;98389.44;;;7.80;100.00
7584;BME280;3833;41.764;26.204;2023-03-16T13:25:39;98454.25;;;8.25;100.00
7584;BME280;3833;41.764;26.204;2023-03-16T13:28:12;98315.16;;;7.36;100.00
7584;BME280;3833;41.764;26.204;2023-03-16T13:30:44;98448.66;;;8.17;100.00
7584;BME280;3833;41.764;26.204;2023-03-16T13:33:18;98437.31;;;8.04;100.00
7584;BME280;3833;41.764;26.204;2023-03-16T13:35:48;98350.56;;;7.51;100.00